Time;durP1;ratioP1;P1;durP2;ratioP2;P2;SDS_P1;SDS_P2;PMS_P1;PMS_P2;Temp;Humidity;BMP_temperature;BMP_pressure;BME280_temperature;BME280_humidity;BME280_pressure;Samples;Min_cycle;Max_cycle;Signal;HPM_P1;HPM_P2
2021/10/15 03:23:22;;;;;;;8.10;2.15;;;;;;;21.57;36.80;101909.34;5298347;23;20086;-71
2021/10/15 03:25:48;;;;;;;6.25;1.83;;;;;;;21.51;37.01;101907.97;4979284;28;20054;-72
2021/10/15 03:28:13;;;;;;;6.55;1.77;;;;;;;21.47;36.98;101918.22;4984817;28;20033;-73
2021/10/15 03:30:39;;;;;;;6.32;1.90;;;;;;;21.38;37.08;101920.34;4982215;28;20014;-74
2021/10/15 03:33:05;;;;;;;7.03;2.53;;;;;;;21.36;37.17;101914.34;4988753;28;20584;-72
2021/10/15 03:35:32;;;;;;;8.15;1.60;;;;;;;21.28;37.11;101913.34;4986963;28;20030;-75
2021/10/15 03:37:58;;;;;;;13.63;3.10;;;;;;;21.25;37.00;101916.03;4983760;28;20023;-74
2021/10/15 03:40:23;;;;;;;8.82;2.47;;;;;;;21.14;37.24;101912.94;4985797;28;20022;-73
2021/10/15 03:42:49;;;;;;;13.00;2.08;;;;;;;21.03;37.32;101920.22;4979855;28;20030;-71
2021/10/15 03:45:14;;;;;;;7.75;2.20;;;;;;;20.96;37.36;101920.00;4984125;28;20037;-71
2021/10/15 03:47:40;;;;;;;10.57;2.33;;;;;;;20.85;37.61;101930.00;4983920;28;20166;-74
2021/10/15 03:50:08;;;;;;;6.43;2.33;;;;;;;20.88;37.56;101927.34;4982492;28;20126;-71
2021/10/15 03:52:35;;;;;;;7.45;1.63;;;;;;;20.84;37.51;101920.06;4983971;28;20032;-72
2021/10/15 03:55:01;;;;;;;8.80;2.55;;;;;;;20.76;37.62;101917.09;4983818;28;20033;-76
2021/10/15 03:57:26;;;;;;;5.90;2.15;;;;;;;20.79;37.68;101921.16;4982207;28;20023;-72
2021/10/15 03:59:52;;;;;;;6.85;1.63;;;;;;;20.70;37.91;101929.59;4984031;28;20072;-73
2021/10/15 04:02:17;;;;;;;7.22;2.83;;;;;;;20.66;38.22;101925.13;4983429;28;20070;-72
2021/10/15 04:04:43;;;;;;;8.73;2.20;;;;;;;20.74;37.90;101932.50;4985063;28;20038;-71
2021/10/15 04:07:09;;;;;;;12.77;1.92;;;;;;;20.59;38.13;101927.69;4981237;28;20018;-72
2021/10/15 04:09:34;;;;;;;8.00;2.58;;;;;;;20.56;38.07;101920.09;4982428;28;20113;-76
2021/10/15 04:12:00;;;;;;;8.07;2.50;;;;;;;20.47;38.15;101915.47;4983861;28;20106;-71
2021/10/15 04:14:25;;;;;;;7.43;1.95;;;;;;;20.39;38.25;101919.16;4981822;28;20384;-72
2021/10/15 04:16:51;;;;;;;6.20;2.83;;;;;;;20.39;38.09;101921.94;4983780;28;20073;-71
2021/10/15 04:19:17;;;;;;;10.02;2.33;;;;;;;20.30;38.38;101926.00;4982974;28;20022;-72
2021/10/15 04:21:43;;;;;;;9.20;2.10;;;;;;;20.20;38.64;101919.78;4982131;28;20022;-71
2021/10/15 04:24:09;;;;;;;7.28;2.55;;;;;;;20.18;38.57;101918.53;4983804;28;20046;-71
2021/10/15 04:26:35;;;;;;;8.95;2.35;;;;;;;20.21;38.43;101934.47;4982657;28;20070;-71
2021/10/15 04:29:00;;;;;;;6.25;2.33;;;;;;;20.16;38.39;101926.38;4981180;28;20030;-72
2021/10/15 04:31:26;;;;;;;15.80;4.13;;;;;;;20.01;38.77;101927.09;4984138;28;20381;-72
2021/10/15 04:33:52;;;;;;;8.35;2.47;;;;;;;19.93;38.73;101929.63;4982220;28;20102;-75
2021/10/15 04:36:17;;;;;;;6.70;1.95;;;;;;;19.80;38.86;101930.81;4982828;28;20018;-78
2021/10/15 04:38:43;;;;;;;9.65;2.40;;;;;;;19.83;38.79;101935.66;4983839;28;20562;-73
2021/10/15 06:41:42;;;;;;;9.95;2.22;;;;;;;18.11;39.07;102013.63;5502705;23;20326;-71
2021/10/15 06:44:08;;;;;;;6.57;1.80;;;;;;;18.08;39.15;102008.75;5002145;28;20129;-70
2021/10/15 06:46:33;;;;;;;7.53;1.83;;;;;;;18.08;39.13;102016.25;4994739;28;20038;-71
2021/10/15 06:48:59;;;;;;;9.20;2.33;;;;;;;18.07;38.89;102020.97;4993274;28;20031;-70
2021/10/15 06:51:24;;;;;;;7.70;1.60;;;;;;;17.95;39.06;102029.16;4994585;28;20046;-70
2021/10/15 06:53:50;;;;;;;8.52;2.42;;;;;;;17.86;39.12;102020.88;4994391;28;20373;-74
2021/10/15 06:56:16;;;;;;;6.88;1.95;;;;;;;17.85;38.93;102033.09;4994536;28;20030;-70
2021/10/15 06:58:41;;;;;;;10.85;1.83;;;;;;;17.88;38.97;102039.91;4994308;28;20435;-71
2021/10/15 07:01:07;;;;;;;7.63;1.45;;;;;;;17.81;38.95;102045.13;4994225;28;20030;-70
2021/10/15 07:03:32;;;;;;;19.30;2.60;;;;;;;17.73;39.12;102055.09;4994125;28;20030;-71
2021/10/15 07:05:59;;;;;;;14.73;2.40;;;;;;;17.70;39.09;102050.19;4994371;28;20034;-70
2021/10/15 07:08:25;;;;;;;12.57;2.50;;;;;;;17.56;39.50;102050.38;4994281;28;20722;-71
2021/10/15 07:10:50;;;;;;;13.35;2.10;;;;;;;17.71;39.22;102052.66;4994082;28;20031;-70
2021/10/15 07:13:16;;;;;;;14.70;2.58;;;;;;;17.52;39.64;102051.34;4994216;28;20435;-70
2021/10/15 07:15:46;;;;;;;10.82;2.40;;;;;;;17.69;39.34;102054.91;4993466;28;20026;-70
2021/10/15 07:18:12;;;;;;;;;;;;;;;17.62;39.46;102051.84;4993668;28;20023;-73
2021/10/15 07:20:38;;;;;;;6.25;1.90;;;;;;;17.68;39.24;102055.22;4993185;28;19968;-69
2021/10/15 07:23:03;;;;;;;8.40;2.08;;;;;;;17.68;39.62;102064.34;4992147;28;20388;-70
2021/10/15 07:25:29;;;;;;;19.70;4.07;;;;;;;17.74;39.47;102045.63;4992807;28;20030;-69
2021/10/15 07:27:55;;;;;;;16.65;3.20;;;;;;;17.78;39.62;102052.16;4992867;28;20033;-70
2021/10/15 07:30:20;;;;;;;11.68;2.83;;;;;;;17.83;39.48;102059.44;4993197;28;20026;-69
2021/10/15 07:32:48;;;;;;;10.07;3.17;;;;;;;18.15;38.80;102053.31;4993641;28;20030;-70
2021/10/15 07:35:14;;;;;;;13.30;2.13;;;;;;;18.24;38.68;102058.78;4993634;28;20105;-70
2021/10/15 07:37:39;;;;;;;10.00;2.55;;;;;;;18.27;38.86;102053.38;4992117;28;20125;-70
2021/10/15 07:40:06;;;;;;;12.57;2.97;;;;;;;18.35;38.79;102048.16;4980469;28;20035;-70
2021/10/15 07:42:33;;;;;;;7.93;1.80;;;;;;;18.29;38.92;102056.66;4981130;28;20495;-70
2021/10/15 07:44:59;;;;;;;6.72;2.20;;;;;;;18.41;38.77;102063.41;4993027;28;20389;-73
2021/10/15 07:47:24;;;;;;;19.40;3.67;;;;;;;18.46;38.80;102063.25;4993384;28;20055;-69
2021/10/15 07:49:50;;;;;;;7.13;2.53;;;;;;;18.53;38.91;102066.28;4993047;28;20100;-70
2021/10/15 07:52:16;;;;;;;9.43;3.30;;;;;;;18.67;38.64;102058.59;4993204;28;20053;-70
2021/10/15 07:54:41;;;;;;;8.27;2.42;;;;;;;18.72;38.64;102069.44;4983893;28;20024;-71
2021/10/15 07:57:08;;;;;;;12.95;2.33;;;;;;;18.78;38.57;102073.63;4993519;28;20052;-70
2021/10/15 07:59:34;;;;;;;10.45;2.28;;;;;;;18.89;38.76;102070.47;4984849;28;20037;-71
2021/10/15 08:01:59;;;;;;;8.45;1.60;;;;;;;18.99;38.54;102078.38;4976617;28;20034;-70
2021/10/15 08:04:25;;;;;;;18.73;2.55;;;;;;;19.04;38.54;102080.94;4977169;28;20081;-70
2021/10/15 08:06:51;;;;;;;10.07;2.65;;;;;;;19.15;38.37;102086.88;4977378;28;20054;-71
2021/10/15 08:09:17;;;;;;;13.20;3.25;;;;;;;19.22;38.30;102081.63;4978103;28;20461;-70
2021/10/15 08:11:43;;;;;;;13.07;2.20;;;;;;;19.18;38.58;102089.78;4977148;28;20022;-71
2021/10/15 08:14:09;;;;;;;12.85;2.80;;;;;;;19.31;38.39;102099.78;4977475;28;20034;-71
2021/10/15 08:16:34;;;;;;;7.03;2.03;;;;;;;19.41;38.26;102093.81;4977197;28;20113;-72
2021/10/15 08:19:00;;;;;;;11.50;2.90;;;;;;;19.48;38.08;102095.22;4976957;28;20026;-70
2021/10/15 08:21:25;;;;;;;8.45;2.55;;;;;;;19.50;38.31;102106.81;4976993;28;20618;-70
2021/10/15 08:23:51;;;;;;;10.10;2.65;;;;;;;19.58;38.16;102105.94;4976221;28;20045;-70
2021/10/15 08:26:16;;;;;;;6.60;1.95;;;;;;;19.65;38.24;102104.22;4978220;28;20077;-71
2021/10/15 08:28:44;;;;;;;12.48;2.47;;;;;;;19.73;38.24;102108.06;4976812;28;20069;-70
2021/10/15 08:31:11;;;;;;;6.45;2.47;;;;;;;19.81;38.10;102109.13;4977591;28;20745;-71
2021/10/15 08:33:36;;;;;;;7.72;2.00;;;;;;;20.00;37.87;102108.56;4976864;28;20547;-70
2021/10/15 08:36:02;;;;;;;12.07;2.92;;;;;;;20.09;37.88;102109.28;4976870;28;20112;-70
2021/10/15 08:38:27;;;;;;;7.88;2.40;;;;;;;19.98;38.20;102108.94;4992799;28;20472;-70
2021/10/15 08:40:53;;;;;;;10.30;2.28;;;;;;;20.15;37.90;102105.13;4993260;28;20368;-72
2021/10/15 08:43:18;;;;;;;15.63;2.30;;;;;;;19.83;38.40;102117.91;4992728;28;20046;-69
2021/10/15 08:45:44;;;;;;;12.63;2.33;;;;;;;20.30;37.68;102107.22;4993004;28;20464;-70
2021/10/15 08:48:10;;;;;;;7.10;2.33;;;;;;;20.33;37.70;102125.13;4992443;28;20106;-70
2021/10/15 08:50:35;;;;;;;9.32;1.80;;;;;;;20.34;37.77;102127.59;4992756;28;20034;-72
2021/10/15 08:53:03;;;;;;;10.80;2.63;;;;;;;20.43;37.58;102125.50;4992680;28;20072;-73
2021/10/15 08:55:29;;;;;;;7.13;2.70;;;;;;;20.56;37.40;102123.59;4992704;28;20034;-70
2021/10/15 08:57:57;;;;;;;12.27;3.05;;;;;;;20.63;37.35;102134.91;4992580;28;20058;-71
2021/10/15 09:00:33;;;;;;;7.55;2.00;;;;;;;20.66;37.25;102123.09;4992627;28;20393;-71
2021/10/15 09:03:12;;;;;;;13.98;2.75;;;;;;;20.61;37.23;102122.53;4995533;28;20027;-70
2021/10/15 09:05:39;;;;;;;6.17;1.47;;;;;;;20.84;37.07;102123.66;4996176;28;20057;-74
2021/10/15 09:08:05;;;;;;;8.75;2.15;;;;;;;20.98;36.97;102129.66;4996074;28;20371;-72
2021/10/15 09:10:32;;;;;;;14.73;2.60;;;;;;;21.02;36.98;102125.03;4996005;28;20042;-71
2021/10/15 09:13:07;;;;;;;9.75;2.10;;;;;;;21.04;36.83;102128.25;4996199;28;20034;-70
2021/10/15 09:15:34;;;;;;;13.50;2.10;;;;;;;21.15;36.72;102128.56;4994057;28;20088;-70
2021/10/15 09:18:17;;;;;;;11.73;2.15;;;;;;;21.20;36.60;102127.53;4994966;28;20503;-70
2021/10/15 09:20:44;;;;;;;5.53;1.50;;;;;;;21.31;36.74;102129.50;4995814;28;20022;-74
2021/10/15 09:23:13;;;;;;;5.03;1.77;;;;;;;21.33;36.40;102129.13;4995923;28;20454;-70
2021/10/15 09:25:44;;;;;;;13.07;2.17;;;;;;;21.42;36.31;102129.78;4995878;28;20415;-70
2021/10/15 09:28:22;;;;;;;4.53;1.70;;;;;;;21.46;36.28;102125.16;4994607;28;20113;-72
2021/10/15 09:30:50;;;;;;;8.38;1.55;;;;;;;21.43;36.28;102123.06;4996097;28;20030;-72
2021/10/15 09:33:18;;;;;;;7.38;1.33;;;;;;;21.54;36.21;102126.97;4996020;28;20081;-72
2021/10/15 09:35:44;;;;;;;6.10;1.25;;;;;;;21.59;35.97;102123.91;4995850;28;20380;-70
2021/10/15 09:38:10;;;;;;;12.30;1.77;;;;;;;21.54;36.28;102134.50;4995871;28;20053;-71
2021/10/15 09:40:38;;;;;;;14.45;2.80;;;;;;;21.70;36.09;102124.22;4995612;28;20053;-74
2021/10/15 09:43:09;;;;;;;5.13;1.50;;;;;;;21.83;35.85;102124.94;4993997;28;20045;-74
2021/10/15 09:45:46;;;;;;;5.85;1.67;;;;;;;21.90;35.79;102122.38;4995567;28;20035;-71
2021/10/15 09:48:24;;;;;;;10.35;1.75;;;;;;;21.57;36.33;102123.47;4994615;28;20034;-71
2021/10/15 09:51:12;;;;;;;7.05;1.65;;;;;;;21.94;35.91;102130.81;4995642;28;20039;-74
2021/10/15 09:54:01;;;;;;;9.13;1.58;;;;;;;21.94;35.76;102131.63;4995262;28;20035;-71
2021/10/15 09:56:49;;;;;;;7.10;1.85;;;;;;;22.08;35.83;102132.03;4995235;28;20038;-71
2021/10/15 09:59:15;;;;;;;4.68;1.25;;;;;;;22.26;35.50;102131.69;4995007;28;20500;-71
2021/10/15 10:01:42;;;;;;;4.13;1.58;;;;;;;22.34;35.44;102130.69;4995330;28;20034;-71
2021/10/15 10:04:34;;;;;;;5.25;1.40;;;;;;;22.15;35.72;102132.22;5089352;27;20474;-71
2021/10/15 10:07:00;;;;;;;6.18;1.92;;;;;;;22.31;35.44;102128.63;5080222;28;20039;-72
2021/10/15 10:09:26;;;;;;;3.20;1.00;;;;;;;22.33;35.11;102124.31;5077998;28;20463;-73
2021/10/15 10:11:52;;;;;;;5.93;1.35;;;;;;;22.38;35.26;102128.81;5078180;28;20031;-73
2021/10/15 10:14:21;;;;;;;4.40;1.75;;;;;;;22.49;35.08;102129.06;5080401;28;20107;-69
2021/10/15 10:16:50;;;;;;;6.13;1.70;;;;;;;22.53;35.28;102124.41;5079311;28;20025;-71
2021/10/15 10:19:20;;;;;;;7.20;1.42;;;;;;;22.61;35.32;102135.34;5078101;28;20029;-69
2021/10/15 10:21:46;;;;;;;4.32;1.75;;;;;;;22.55;35.17;102128.44;5078795;28;20456;-69
2021/10/15 10:24:21;;;;;;;11.65;3.15;;;;;;;22.68;35.15;102141.09;5079879;28;20017;-69
2021/10/15 10:26:50;;;;;;;4.00;1.50;;;;;;;22.68;34.72;102143.06;5076275;28;20387;-69
2021/10/15 10:29:16;;;;;;;6.25;1.63;;;;;;;22.71;34.98;102137.56;5077683;28;20056;-71
2021/10/15 10:31:42;;;;;;;6.78;1.70;;;;;;;22.76;34.88;102132.91;5078315;28;20053;-69
2021/10/15 10:34:10;;;;;;;6.38;1.50;;;;;;;22.79;35.18;102138.53;5078654;28;20031;-70
2021/10/15 10:36:38;;;;;;;6.10;1.20;;;;;;;22.80;34.79;102144.91;5080110;28;20362;-69
2021/10/15 10:39:18;;;;;;;6.22;1.27;;;;;;;22.79;34.93;102138.53;5078467;28;20433;-69
2021/10/15 10:42:20;;;;;;;4.78;1.40;;;;;;;22.83;35.00;102139.44;5076246;28;20040;-69
2021/10/15 10:44:48;;;;;;;4.90;1.98;;;;;;;22.89;34.72;102142.75;5072455;28;20370;-69
2021/10/15 10:47:22;;;;;;;4.05;1.42;;;;;;;22.99;34.71;102142.22;5079741;28;20045;-70
2021/10/15 10:50:04;;;;;;;6.10;1.45;;;;;;;23.07;34.82;102138.41;5076766;28;20501;-69
2021/10/15 10:52:39;;;;;;;4.82;1.55;;;;;;;23.12;34.54;102143.69;5075492;28;20032;-69
2021/10/15 10:55:05;;;;;;;6.93;2.25;;;;;;;23.13;34.73;102144.50;5068704;28;20025;-69
2021/10/15 10:57:38;;;;;;;4.00;1.30;;;;;;;23.13;35.12;102145.31;5068649;28;20024;-69
2021/10/15 11:00:24;;;;;;;10.02;1.67;;;;;;;23.15;34.77;102140.19;5068114;28;20032;-70
2021/10/15 11:02:55;;;;;;;10.15;2.08;;;;;;;23.19;34.84;102146.63;5068339;28;20063;-70
2021/10/15 11:05:39;;;;;;;5.43;1.30;;;;;;;23.33;34.75;102145.31;5068706;28;20078;-69
2021/10/15 11:08:23;;;;;;;5.57;1.42;;;;;;;22.99;35.17;102142.22;5068254;28;20025;-70
2021/10/15 11:10:50;;;;;;;10.88;2.53;;;;;;;23.06;35.20;102136.00;5068314;28;20031;-72
2021/10/15 11:13:32;;;;;;;3.78;1.08;;;;;;;23.10;35.13;102137.66;5061026;28;20021;-73
2021/10/15 11:15:57;;;;;;;3.35;1.05;;;;;;;23.14;35.05;102146.13;5055160;28;20032;-72
2021/10/15 11:18:23;;;;;;;4.05;1.55;;;;;;;23.13;34.81;102145.31;5053968;28;20025;-70
2021/10/15 11:20:49;;;;;;;8.98;1.40;;;;;;;23.14;34.85;102143.34;5052505;28;20060;-70
2021/10/15 11:23:15;;;;;;;10.23;2.08;;;;;;;23.20;35.02;102137.13;5049099;28;20041;-71
2021/10/15 11:25:44;;;;;;;7.13;1.35;;;;;;;23.22;34.96;102140.34;5039021;28;20025;-71
2021/10/15 11:28:16;;;;;;;2.95;1.02;;;;;;;23.25;34.61;102145.16;5039276;28;20021;-71
2021/10/15 11:30:45;;;;;;;8.32;2.40;;;;;;;23.37;34.49;102141.44;5038974;28;20032;-71
2021/10/15 11:33:15;;;;;;;5.80;1.60;;;;;;;23.34;34.77;102146.94;5041080;28;20396;-71
2021/10/15 11:35:43;;;;;;;4.55;1.63;;;;;;;23.42;34.68;102143.13;5038280;28;20017;-70
2021/10/15 11:38:19;;;;;;;3.80;1.00;;;;;;;23.50;34.08;102150.44;5036455;28;20283;-71
2021/10/15 11:40:52;;;;;;;7.03;1.63;;;;;;;23.50;34.06;102150.44;5035856;28;20027;-71
2021/10/15 11:43:27;;;;;;;6.70;2.63;;;;;;;23.50;33.86;102140.13;5037442;28;20703;-71
2021/10/15 11:45:59;;;;;;;8.38;1.48;;;;;;;23.64;33.95;102144.38;5037217;28;20036;-71
2021/10/15 11:48:38;;;;;;;4.95;1.40;;;;;;;23.65;33.56;102140.41;5053390;28;20037;-70
2021/10/15 11:51:04;;;;;;;8.70;2.33;;;;;;;23.76;33.79;102136.66;5054313;28;20090;-70
2021/10/15 11:53:47;;;;;;;4.30;1.33;;;;;;;23.88;33.41;102140.44;5054454;28;20025;-71
2021/10/15 11:56:21;;;;;;;4.47;1.20;;;;;;;23.90;33.46;102138.13;5054505;28;20460;-70
2021/10/15 11:58:48;;;;;;;6.97;1.17;;;;;;;23.93;33.27;102135.38;5054474;28;20056;-70
2021/10/15 12:01:27;;;;;;;5.43;1.52;;;;;;;24.02;32.60;102135.13;5050424;28;20086;-70
2021/10/15 12:04:08;;;;;;;4.57;1.38;;;;;;;24.05;32.69;102131.63;5053873;28;20449;-70
2021/10/15 12:06:39;;;;;;;12.23;2.75;;;;;;;24.11;32.78;102127.34;5054148;28;20029;-70
2021/10/15 12:09:10;;;;;;;4.53;1.65;;;;;;;24.18;33.07;102123.84;5054146;28;20036;-72
2021/10/15 12:11:39;;;;;;;4.72;0.80;;;;;;;24.29;32.77;102125.66;5052706;28;20399;-72
2021/10/15 12:14:22;;;;;;;3.53;1.23;;;;;;;24.37;32.49;102121.00;5054236;28;20043;-71
2021/10/15 12:16:52;;;;;;;5.45;1.30;;;;;;;24.39;32.53;102121.44;5054017;28;20040;-72
2021/10/15 12:19:17;;;;;;;5.00;1.63;;;;;;;24.38;32.59;102124.59;5053624;28;20063;-71
2021/10/15 12:21:49;;;;;;;6.55;1.80;;;;;;;24.42;32.75;102123.50;5052433;28;20029;-70
2021/10/15 12:24:25;;;;;;;5.45;1.90;;;;;;;24.40;32.56;102127.81;5053698;28;20039;-70
2021/10/15 12:27:16;;;;;;;5.15;1.58;;;;;;;24.49;32.43;102112.44;5052719;28;20036;-71
2021/10/15 12:29:57;;;;;;;3.60;1.30;;;;;;;24.47;32.20;102120.38;5053627;28;20025;-71
2021/10/15 12:32:37;;;;;;;3.65;1.10;;;;;;;24.53;31.86;102118.06;5053737;28;20025;-70
2021/10/15 12:35:13;;;;;;;3.78;1.65;;;;;;;24.57;32.27;102110.56;5053970;28;20382;-71
2021/10/15 12:38:00;;;;;;;3.67;1.02;;;;;;;24.66;31.45;102125.06;5053708;28;20036;-71
2021/10/15 12:40:34;;;;;;;5.80;1.40;;;;;;;24.65;31.54;102117.06;5053499;28;20145;-71
2021/10/15 12:43:06;;;;;;;2.70;0.93;;;;;;;24.76;31.45;102115.22;5053420;28;20107;-73
2021/10/15 12:45:38;;;;;;;11.45;2.42;;;;;;;24.69;31.68;102115.13;5053469;28;20021;-71
2021/10/15 12:48:24;;;;;;;5.63;1.10;;;;;;;24.49;31.97;102120.03;5052990;28;20112;-71
2021/10/15 12:51:05;;;;;;;3.95;1.08;;;;;;;24.60;31.15;102109.78;5053369;28;20430;-71
2021/10/15 12:53:39;;;;;;;4.22;0.90;;;;;;;24.72;31.17;102115.19;5053481;28;20029;-71
2021/10/15 12:56:13;;;;;;;6.38;1.17;;;;;;;24.72;30.67;102106.00;5053327;28;20032;-70
2021/10/15 12:58:51;;;;;;;5.00;1.17;;;;;;;24.58;30.87;102106.59;5053391;28;20025;-71
2021/10/15 13:01:31;;;;;;;6.38;1.35;;;;;;;24.64;31.04;102102.28;5053082;28;20552;-71
2021/10/15 13:03:57;;;;;;;;;;;;;;;24.63;31.58;102101.44;5051898;28;20505;-71
2021/10/15 13:06:23;;;;;;;6.85;1.10;;;;;;;24.75;31.28;102106.03;5052782;28;19913;-72
2021/10/15 13:08:51;;;;;;;2.78;0.75;;;;;;;24.54;31.30;102103.72;5053189;28;20043;-70
2021/10/15 13:11:19;;;;;;;7.10;1.52;;;;;;;24.33;31.56;102095.84;5052971;28;20608;-71
2021/10/15 13:13:48;;;;;;;4.05;1.67;;;;;;;24.45;31.36;102088.41;5052828;28;20033;-71
2021/10/15 13:16:15;;;;;;;7.75;1.10;;;;;;;24.55;30.99;102099.72;5052910;28;20040;-72
2021/10/15 13:18:41;;;;;;;3.20;0.88;;;;;;;24.58;31.05;102092.63;5052549;28;20534;-70
2021/10/15 13:21:07;;;;;;;3.28;0.82;;;;;;;24.62;31.05;102082.28;5052772;28;20025;-71
2021/10/15 13:23:32;;;;;;;8.90;2.38;;;;;;;24.70;30.64;102078.41;5052637;28;20498;-70
2021/10/15 13:25:58;;;;;;;4.63;1.27;;;;;;;24.72;30.63;102081.63;5052574;28;20382;-71
2021/10/15 13:28:24;;;;;;;5.72;1.45;;;;;;;24.63;31.35;102079.09;5052656;28;20028;-71
2021/10/15 13:30:50;;;;;;;4.10;0.95;;;;;;;24.74;30.74;102075.66;5052776;28;20418;-70
2021/10/15 13:33:19;;;;;;;3.20;1.20;;;;;;;24.83;31.07;102079.78;5052524;28;20021;-71
2021/10/15 13:35:48;;;;;;;9.77;1.40;;;;;;;24.92;30.82;102071.91;5052385;28;20406;-71
2021/10/15 13:38:18;;;;;;;4.90;1.42;;;;;;;24.82;30.24;102072.59;5043299;28;20029;-71
2021/10/15 13:41:37;;;;;;;1.50;0.73;;;;;;;24.82;30.34;102077.38;5037590;28;20099;-73
2021/10/15 13:46:14;;;;;;;3.03;0.98;;;;;;;24.85;29.90;102073.81;5037005;28;20100;-74
2021/10/15 13:51:24;;;;;;;9.30;2.08;;;;;;;24.96;29.85;102071.97;5035416;28;20098;-73
2021/10/15 13:53:49;;;;;;;2.90;1.20;;;;;;;24.92;29.88;102069.13;5035559;28;20020;-71
2021/10/15 13:56:17;;;;;;;7.95;3.08;;;;;;;24.99;30.04;102073.19;5036043;28;20102;-71
2021/10/15 13:58:45;;;;;;;7.57;2.35;;;;;;;24.91;30.43;102067.50;5036405;28;20443;-71
2021/10/15 14:01:18;;;;;;;3.17;0.90;;;;;;;24.96;30.25;102065.59;5035936;28;20033;-71
2021/10/15 14:06:18;;;;;;;3.50;0.85;;;;;;;25.01;29.67;102068.03;5052176;28;20024;-71
2021/10/15 14:08:43;;;;;;;8.07;2.22;;;;;;;24.80;29.73;102065.78;5052104;28;20597;-75
2021/10/15 14:11:09;;;;;;;8.57;1.77;;;;;;;24.63;29.60;102067.13;5046397;28;20116;-73
2021/10/15 14:13:35;;;;;;;14.52;3.97;;;;;;;24.32;30.01;102059.84;5032108;28;20025;-72
2021/10/15 14:16:01;;;;;;;7.22;1.80;;;;;;;24.03;30.72;102065.00;5032131;28;20066;-70
2021/10/15 14:18:29;;;;;;;5.93;1.02;;;;;;;24.15;30.89;102060.38;5032403;28;20029;-70
2021/10/15 14:20:57;;;;;;;7.53;1.40;;;;;;;24.18;30.69;102056.81;5032364;28;20360;-70
2021/10/15 14:23:23;;;;;;;2.58;1.25;;;;;;;24.19;30.56;102053.69;5037013;28;20029;-70
2021/10/15 14:25:49;;;;;;;2.33;1.00;;;;;;;24.18;30.90;102052.06;5051916;28;20547;-71
2021/10/15 14:28:14;;;;;;;10.23;2.00;;;;;;;24.21;30.31;102053.28;5052293;28;20041;-70
2021/10/15 14:30:40;;;;;;;3.30;1.20;;;;;;;24.32;29.89;102051.47;5051905;28;20025;-70
2021/10/15 14:33:06;;;;;;;4.18;1.20;;;;;;;24.42;30.17;102050.06;5051941;28;20463;-70
2021/10/15 14:35:32;;;;;;;2.15;1.02;;;;;;;24.44;29.82;102042.09;5050537;28;20108;-70
2021/10/15 14:37:58;;;;;;;3.90;1.23;;;;;;;24.45;29.80;102052.09;5036314;28;20175;-72
2021/10/15 14:40:23;;;;;;;2.28;0.88;;;;;;;24.48;29.68;102040.97;5035174;28;20032;-71
2021/10/15 14:42:49;;;;;;;3.70;1.17;;;;;;;24.47;29.96;102044.13;5040741;28;20033;-71
2021/10/15 14:45:15;;;;;;;8.20;5.78;;;;;;;24.49;30.17;102041.78;5051831;28;20021;-71
2021/10/15 14:47:41;;;;;;;4.28;1.00;;;;;;;24.51;30.07;102042.22;5052117;28;20516;-74
2021/10/15 14:50:07;;;;;;;2.95;1.08;;;;;;;24.59;30.14;102046.72;5053723;28;20025;-71
2021/10/15 14:52:32;;;;;;;4.85;0.95;;;;;;;24.50;29.76;102038.63;5055418;28;20029;-71
2021/10/15 14:54:58;;;;;;;5.00;1.17;;;;;;;24.42;29.69;102034.09;5055874;28;20029;-71
2021/10/15 14:57:24;;;;;;;2.75;1.45;;;;;;;24.16;29.58;102034.06;5055604;28;20024;-71
2021/10/15 14:59:49;;;;;;;3.20;1.10;;;;;;;24.13;29.67;102035.63;5055887;28;20029;-73
2021/10/15 15:02:15;;;;;;;7.00;1.38;;;;;;;24.03;30.10;102028.69;5055458;28;20074;-71
2021/10/15 15:04:42;;;;;;;3.22;0.80;;;;;;;24.02;30.00;102034.63;5055875;28;20032;-74
2021/10/15 15:07:08;;;;;;;4.18;1.13;;;;;;;23.91;30.42;102036.44;5055621;28;20021;-73
2021/10/15 15:09:34;;;;;;;3.95;1.17;;;;;;;23.70;30.32;102029.31;5054803;28;20033;-72
2021/10/15 15:11:59;;;;;;;3.10;0.88;;;;;;;23.72;30.40;102021.38;5055516;28;20025;-72
2021/10/15 15:14:25;;;;;;;2.35;1.33;;;;;;;23.65;30.92;102024.03;5055642;28;20032;-72
2021/10/15 15:16:51;;;;;;;6.53;1.38;;;;;;;23.67;30.82;102021.69;5055555;28;20386;-72
2021/10/15 15:19:16;;;;;;;6.97;1.52;;;;;;;23.58;30.76;102018.31;5054885;28;20032;-73
2021/10/15 15:21:43;;;;;;;6.32;1.40;;;;;;;23.49;31.01;102021.31;5053385;28;20063;-70
2021/10/15 15:24:10;;;;;;;5.80;2.90;;;;;;;23.61;30.97;102022.38;5054796;28;20029;-70
2021/10/15 15:26:36;;;;;;;8.25;1.77;;;;;;;23.59;30.79;102019.94;5054504;28;20065;-70
2021/10/15 15:29:02;;;;;;;5.10;0.88;;;;;;;23.59;31.07;102025.50;5066152;28;20059;-75
2021/10/15 15:31:28;;;;;;;4.80;1.35;;;;;;;23.50;31.27;102011.81;5062808;28;20494;-71
2021/10/15 15:33:53;;;;;;;11.68;1.83;;;;;;;23.60;31.10;102012.38;5064419;28;20025;-75
2021/10/15 15:36:22;;;;;;;4.45;1.35;;;;;;;23.56;31.06;102006.72;5058859;28;20040;-71
2021/10/15 15:38:49;;;;;;;5.10;1.20;;;;;;;23.64;30.78;102002.91;5039590;28;20055;-71
2021/10/15 15:41:15;;;;;;;3.10;1.02;;;;;;;23.70;30.79;102001.41;5041774;28;20383;-72
2021/10/15 15:43:41;;;;;;;5.07;1.30;;;;;;;23.57;31.35;102001.94;5038883;28;20029;-73
2021/10/15 15:46:08;;;;;;;3.08;0.90;;;;;;;23.61;31.32;102000.84;5039165;28;20017;-73
2021/10/15 15:48:37;;;;;;;5.35;1.48;;;;;;;23.60;31.35;102004.00;5039147;28;20036;-72
2021/10/15 15:51:05;;;;;;;1.50;0.93;;;;;;;23.59;31.45;102010.75;5041008;28;20017;-71
2021/10/15 15:53:31;;;;;;;8.15;1.85;;;;;;;23.46;31.50;102005.34;5039352;28;20045;-73
2021/10/15 15:55:57;;;;;;;5.20;1.15;;;;;;;23.55;31.30;102005.09;5038851;28;20032;-72
2021/10/15 15:58:25;;;;;;;8.68;1.75;;;;;;;23.57;31.28;102005.53;5044421;28;20029;-72
2021/10/15 16:00:51;;;;;;;2.75;1.15;;;;;;;23.55;30.97;102010.69;5036274;28;20382;-74
2021/10/15 16:03:16;;;;;;;4.72;1.35;;;;;;;23.46;31.29;102005.34;5038619;28;20044;-72
2021/10/15 16:05:43;;;;;;;4.65;1.00;;;;;;;23.51;30.94;102007.03;5062745;28;20025;-73
2021/10/15 16:08:10;;;;;;;2.08;1.00;;;;;;;23.63;31.18;102009.66;5059877;28;20171;-74
2021/10/15 16:10:39;;;;;;;4.60;1.65;;;;;;;23.61;31.16;102002.84;5068837;28;20021;-74
2021/10/15 16:13:05;;;;;;;8.40;1.55;;;;;;;23.58;31.34;102012.75;5059643;28;20039;-73
2021/10/15 16:15:32;;;;;;;12.50;3.97;;;;;;;23.60;31.21;102013.19;5062359;28;20024;-73
2021/10/15 16:17:58;;;;;;;13.38;8.68;;;;;;;23.64;31.05;102005.69;5066206;28;20035;-71
2021/10/15 16:20:23;;;;;;;28.30;19.17;;;;;;;23.54;31.43;102003.50;5071776;28;20028;-72
2021/10/15 16:22:51;;;;;;;16.92;9.63;;;;;;;23.56;31.49;102003.91;5052916;28;20025;-71
2021/10/15 16:25:17;;;;;;;23.35;4.65;;;;;;;23.53;31.19;101996.31;5053890;28;20025;-75
2021/10/15 16:27:43;;;;;;;5.93;2.20;;;;;;;23.49;31.18;102003.78;5053473;28;20029;-71
2021/10/15 16:30:10;;;;;;;27.73;11.15;;;;;;;23.51;31.42;101995.88;5053818;28;20055;-71
2021/10/15 16:32:37;;;;;;;17.23;7.18;;;;;;;23.50;31.33;101997.03;5053929;28;20032;-71
2021/10/15 16:35:05;;;;;;;5.82;1.92;;;;;;;23.51;31.49;101998.66;5053246;28;20028;-71
2021/10/15 16:37:32;;;;;;;31.75;14.70;;;;;;;23.49;31.19;101995.41;5053495;28;20039;-76
2021/10/15 16:39:58;;;;;;;6.25;2.63;;;;;;;23.46;31.51;101994.19;5053491;28;20021;-71
2021/10/15 16:42:24;;;;;;;39.90;21.90;;;;;;;23.41;31.60;101999.25;5053396;28;20451;-71
2021/10/15 16:44:50;;;;;;;23.73;8.23;;;;;;;23.29;31.67;101993.88;5053321;28;20510;-72
2021/10/15 16:47:16;;;;;;;27.38;12.80;;;;;;;23.29;31.65;101993.88;5053407;28;20060;-71
2021/10/15 16:49:41;;;;;;;10.20;4.50;;;;;;;23.23;31.36;101996.94;5053606;28;20033;-72
2021/10/15 16:52:07;;;;;;;35.42;18.70;;;;;;;23.24;31.70;101995.78;5053312;28;20107;-75
2021/10/15 16:54:32;;;;;;;27.58;7.85;;;;;;;23.16;31.75;101993.22;5053285;28;20098;-71
2021/10/15 16:56:58;;;;;;;16.80;10.45;;;;;;;23.17;31.83;101990.06;5053071;28;20032;-72
2021/10/15 16:59:24;;;;;;;4.70;2.10;;;;;;;23.25;31.60;101993.78;5053127;28;20116;-71
2021/10/15 17:01:49;;;;;;;17.17;1.80;;;;;;;23.20;31.85;101986.56;5052010;28;20025;-71